Time;durP1;ratioP1;P1;durP2;ratioP2;P2;SDS_P1;SDS_P2;PMS_P1;PMS_P2;Temp;Humidity;BMP_temperature;BMP_pressure;BME280_temperature;BME280_humidity;BME280_pressure;Samples;Min_cycle;Max_cycle;Signal;HPM_P1;HPM_P2
2022/11/23 00:00:39;;;;;;;9.32;1.10;;;11.90;99.90;;;;;;5112472;28;20031;-82
2022/11/23 00:03:05;;;;;;;7.18;1.75;;;11.40;99.90;;;;;;5112679;28;20023;-82
2022/11/23 00:05:31;;;;;;;8.73;1.42;;;11.10;99.90;;;;;;5112560;28;20032;-81
2022/11/23 00:07:57;;;;;;;8.95;1.23;;;11.10;99.90;;;;;;5106236;28;20028;-81
2022/11/23 00:10:23;;;;;;;11.98;1.85;;;11.20;99.90;;;;;;5092410;28;20496;-81
2022/11/23 00:12:49;;;;;;;13.50;1.77;;;11.50;99.90;;;;;;5091752;28;20070;-81
2022/11/23 00:15:16;;;;;;;12.70;1.80;;;11.60;99.90;;;;;;5092248;28;20084;-81
2022/11/23 00:17:42;;;;;;;19.73;2.10;;;11.70;99.90;;;;;;5091694;28;20120;-82
2022/11/23 00:20:08;;;;;;;14.88;2.08;;;11.90;99.90;;;;;;5091850;28;20043;-82
2022/11/23 00:22:35;;;;;;;15.68;2.15;;;12.00;99.90;;;;;;5073873;28;20028;-82
2022/11/23 00:25:01;;;;;;;14.45;2.30;;;12.10;99.90;;;;;;5092410;28;20092;-82
2022/11/23 00:27:27;;;;;;;18.97;2.70;;;12.20;99.90;;;;;;5073061;28;20023;-83
2022/11/23 00:29:53;;;;;;;12.73;1.90;;;12.30;99.90;;;;;;5092026;28;20077;-82
2022/11/23 00:32:19;;;;;;;9.97;1.67;;;12.20;99.90;;;;;;5073867;28;20328;-82
2022/11/23 00:34:45;;;;;;;8.80;1.35;;;12.00;99.90;;;;;;5098645;28;20028;-82
2022/11/23 00:37:11;;;;;;;8.70;1.58;;;12.00;99.90;;;;;;5112299;28;20023;-81
2022/11/23 00:39:37;;;;;;;13.07;1.73;;;12.00;99.90;;;;;;5112015;28;20144;-81
2022/11/23 00:42:03;;;;;;;13.73;2.57;;;12.00;99.90;;;;;;5112223;28;20487;-82
2022/11/23 00:44:29;;;;;;;8.57;1.53;;;12.00;99.90;;;;;;5112283;28;20277;-82
2022/11/23 00:46:55;;;;;;;11.25;1.40;;;12.10;99.90;;;;;;5093586;28;20031;-83
2022/11/23 00:49:21;;;;;;;7.70;1.35;;;12.10;99.90;;;;;;5112213;28;20166;-84
2022/11/23 00:51:47;;;;;;;8.80;1.83;;;12.10;99.90;;;;;;5094463;28;20028;-82
2022/11/23 00:54:13;;;;;;;11.05;1.95;;;12.10;99.90;;;;;;5092058;28;20036;-83
2022/11/23 00:56:39;;;;;;;19.00;2.40;;;12.10;99.90;;;;;;5091422;28;20047;-84
2022/11/23 00:59:05;;;;;;;15.50;1.80;;;12.10;99.90;;;;;;5091528;28;20118;-82
2022/11/23 01:01:35;;;;;;;19.40;2.38;;;12.00;99.90;;;;;;5091939;28;20448;-82
2022/11/23 01:04:04;;;;;;;14.80;2.28;;;12.00;99.90;;;;;;5092138;28;20040;-81
2022/11/23 01:06:36;;;;;;;15.82;2.15;;;12.20;99.90;;;;;;5092246;28;20103;-81
2022/11/23 01:09:10;;;;;;;22.88;3.20;;;12.30;99.90;;;;;;5092288;28;20097;-80
2022/11/23 01:11:36;;;;;;;20.75;2.85;;;12.50;99.90;;;;;;5092279;28;20460;-82
2022/11/23 01:14:02;;;;;;;22.27;2.50;;;12.70;99.90;;;;;;5092335;28;20024;-81
2022/11/23 01:16:31;;;;;;;24.95;3.08;;;12.70;99.90;;;;;;5091852;28;20048;-82
2022/11/23 01:19:00;;;;;;;27.10;2.92;;;12.80;99.90;;;;;;5103840;28;20170;-80
2022/11/23 01:21:27;;;;;;;17.75;2.47;;;12.90;99.90;;;;;;5091801;28;20036;-81
2022/11/23 01:23:54;;;;;;;22.83;2.67;;;12.90;99.90;;;;;;5088405;28;20114;-80
2022/11/23 01:26:21;;;;;;;17.23;2.17;;;12.90;99.90;;;;;;5071787;28;20056;-81
2022/11/23 01:28:47;;;;;;;14.25;2.20;;;12.90;99.90;;;;;;5071998;28;20029;-82
2022/11/23 01:31:17;;;;;;;15.63;1.97;;;12.70;99.90;;;;;;5071522;28;20443;-81
2022/11/23 01:33:43;;;;;;;15.73;2.17;;;12.60;99.90;;;;;;5071828;28;20409;-81
2022/11/23 01:36:21;;;;;;;14.18;2.03;;;12.60;99.90;;;;;;5071769;28;20453;-82
2022/11/23 01:38:48;;;;;;;11.35;1.65;;;12.60;99.90;;;;;;5072996;28;20031;-82
2022/11/23 01:41:19;;;;;;;;;;;12.60;99.90;;;;;;5075593;28;20111;-82
2022/11/23 01:43:45;;;;;;;12.45;2.13;;;12.60;99.90;;;;;;5075579;28;19905;-82
2022/11/23 01:46:12;;;;;;;9.23;1.50;;;12.70;99.90;;;;;;5075585;28;20497;-82
2022/11/23 01:49:04;;;;;;;13.88;1.92;;;12.70;99.90;;;;;;5057263;28;20032;-81
2022/11/23 01:51:34;;;;;;;15.77;2.53;;;12.60;99.90;;;;;;5075688;28;20100;-81
2022/11/23 01:54:05;;;;;;;18.23;2.75;;;12.70;99.90;;;;;;5075286;28;20225;-81
2022/11/23 01:56:38;;;;;;;15.05;1.98;;;12.70;99.90;;;;;;5075203;28;20099;-81
2022/11/23 01:59:09;;;;;;;17.30;1.83;;;12.70;99.90;;;;;;5075380;28;20490;-80
2022/11/23 02:01:35;;;;;;;12.98;1.85;;;12.70;99.90;;;;;;5075352;28;20039;-81
2022/11/23 02:04:02;;;;;;;16.83;2.33;;;12.80;99.90;;;;;;5074873;28;20024;-81
2022/11/23 02:06:30;;;;;;;14.65;2.20;;;12.80;99.90;;;;;;5074620;28;20028;-80
2022/11/23 02:08:57;;;;;;;16.15;2.47;;;12.90;99.90;;;;;;5074665;28;20028;-80
2022/11/23 02:11:23;;;;;;;26.55;2.60;;;12.90;99.90;;;;;;5074877;28;20016;-79
2022/11/23 02:13:50;;;;;;;18.92;2.72;;;13.00;99.90;;;;;;5074364;28;20044;-80
2022/11/23 02:16:17;;;;;;;14.02;2.30;;;13.00;99.90;;;;;;5074819;28;20020;-80
2022/11/23 02:18:45;;;;;;;;;;;13.00;99.90;;;;;;5074994;28;20035;-80
2022/11/23 02:21:42;;;;;;;14.95;2.58;;;12.80;99.90;;;;;;5074150;28;19912;-81
2022/11/23 02:24:22;;;;;;;12.48;2.00;;;12.70;99.90;;;;;;5056208;28;20051;-81
2022/11/23 02:26:48;;;;;;;13.35;1.85;;;12.50;99.90;;;;;;5074445;28;20039;-79
2022/11/23 02:29:24;;;;;;;11.95;2.00;;;12.40;99.90;;;;;;5074198;28;20024;-80
2022/11/23 02:31:51;;;;;;;16.48;2.47;;;12.40;99.90;;;;;;5074471;28;20025;-81
2022/11/23 02:34:17;;;;;;;29.90;3.28;;;12.40;99.90;;;;;;5074140;28;20128;-80
2022/11/23 02:36:51;;;;;;;26.20;3.22;;;12.40;99.90;;;;;;5074138;28;20028;-80
2022/11/23 02:39:26;;;;;;;23.58;1.92;;;12.40;99.90;;;;;;5074196;28;20111;-80
2022/11/23 02:41:54;;;;;;;21.73;2.10;;;12.40;99.90;;;;;;5074415;28;20032;-80
2022/11/23 02:44:47;;;;;;;23.45;3.03;;;12.40;99.90;;;;;;5073926;28;20531;-81
2022/11/23 02:47:14;;;;;;;18.23;2.20;;;12.40;99.90;;;;;;5073988;28;20035;-80
2022/11/23 02:49:41;;;;;;;21.92;3.15;;;12.40;99.90;;;;;;5073724;28;20025;-79
2022/11/23 02:52:08;;;;;;;27.70;3.03;;;12.40;99.90;;;;;;5073574;28;20099;-79
2022/11/23 02:54:34;;;;;;;20.30;2.92;;;12.40;99.90;;;;;;5073844;28;20029;-81
2022/11/23 02:57:00;;;;;;;28.38;2.67;;;12.40;99.90;;;;;;5074046;28;20434;-80
2022/11/23 02:59:29;;;;;;;21.48;2.05;;;12.50;99.90;;;;;;5073761;28;20523;-80
2022/11/23 03:01:55;;;;;;;17.00;2.38;;;12.50;99.90;;;;;;5073374;28;20051;-80
2022/11/23 03:04:21;;;;;;;26.57;2.60;;;12.50;99.90;;;;;;5073877;28;20099;-79
2022/11/23 03:06:47;;;;;;;20.27;3.28;;;12.60;99.90;;;;;;5073307;28;20017;-80
2022/11/23 03:09:13;;;;;;;16.37;2.70;;;12.60;99.90;;;;;;5073810;28;20048;-80
2022/11/23 03:11:39;;;;;;;13.23;2.50;;;12.60;99.90;;;;;;5073249;28;20103;-80
2022/11/23 03:14:05;;;;;;;19.10;2.30;;;12.60;99.90;;;;;;5054993;28;20042;-80
2022/11/23 03:16:32;;;;;;;27.10;3.13;;;12.60;99.90;;;;;;5073261;28;20021;-79
2022/11/23 03:18:58;;;;;;;19.88;3.45;;;12.60;99.90;;;;;;5055255;28;20457;-79
2022/11/23 03:21:24;;;;;;;18.40;2.92;;;12.60;99.90;;;;;;5073291;28;20086;-79
2022/11/23 03:23:51;;;;;;;15.27;2.17;;;12.40;99.90;;;;;;5073435;28;20457;-81
2022/11/23 03:26:17;;;;;;;16.47;2.40;;;12.50;99.90;;;;;;5073083;28;20286;-80
2022/11/23 03:28:43;;;;;;;14.23;1.93;;;12.50;99.90;;;;;;5073138;28;20020;-81
2022/11/23 03:31:09;;;;;;;20.30;2.13;;;12.50;99.90;;;;;;5073356;28;20328;-80
2022/11/23 03:33:35;;;;;;;16.75;2.10;;;12.50;99.90;;;;;;5073124;28;20051;-80
2022/11/23 03:36:01;;;;;;;16.20;1.70;;;12.50;99.90;;;;;;5073009;28;20052;-80
2022/11/23 03:38:27;;;;;;;14.53;1.80;;;12.50;99.90;;;;;;5072585;28;20033;-80
2022/11/23 03:40:54;;;;;;;12.50;1.70;;;12.50;99.90;;;;;;5072454;28;20036;-80
2022/11/23 03:43:20;;;;;;;18.02;1.92;;;12.40;99.90;;;;;;5072512;28;20317;-80
2022/11/23 03:45:46;;;;;;;14.10;1.60;;;12.40;99.90;;;;;;5072455;28;20059;-79
2022/11/23 03:48:13;;;;;;;12.07;2.23;;;12.50;99.90;;;;;;5071515;28;20032;-78
2022/11/23 03:50:39;;;;;;;9.98;1.67;;;12.40;99.90;;;;;;5072146;28;20043;-80
2022/11/23 03:53:05;;;;;;;17.03;2.23;;;12.40;99.90;;;;;;5053803;28;20421;-80
2022/11/23 03:55:32;;;;;;;18.13;1.97;;;12.40;99.90;;;;;;5071878;28;20044;-80
2022/11/23 03:57:58;;;;;;;13.90;2.00;;;12.40;99.90;;;;;;5072087;28;20267;-79
2022/11/23 04:00:29;;;;;;;19.67;2.25;;;12.40;99.90;;;;;;5072354;28;20064;-80
2022/11/23 04:02:55;;;;;;;15.95;2.13;;;12.50;99.90;;;;;;5071578;28;20127;-80
2022/11/23 04:05:23;;;;;;;15.80;2.45;;;12.50;99.90;;;;;;5072422;28;20040;-79
2022/11/23 04:07:49;;;;;;;17.05;2.22;;;12.40;99.90;;;;;;5071909;28;20101;-80
2022/11/23 04:10:17;;;;;;;14.00;2.10;;;12.50;99.90;;;;;;5072411;28;20107;-79
2022/11/23 04:12:44;;;;;;;26.13;3.40;;;12.50;99.90;;;;;;5053762;28;20110;-79
2022/11/23 04:15:11;;;;;;;18.83;2.75;;;12.50;99.90;;;;;;5072202;28;20433;-79
2022/11/23 04:17:37;;;;;;;;;;;12.60;99.90;;;;;;5072358;28;20092;-78
2022/11/23 04:20:04;;;;;;;19.45;2.60;;;12.60;99.90;;;;;;5070458;28;19959;-80
2022/11/23 04:22:30;;;;;;;18.48;2.47;;;12.50;99.90;;;;;;5071886;28;20024;-80
2022/11/23 04:24:56;;;;;;;15.40;2.20;;;12.50;99.90;;;;;;5072205;28;20029;-80
2022/11/23 04:27:22;;;;;;;18.37;2.57;;;12.60;99.90;;;;;;5072529;28;20471;-80
2022/11/23 04:29:48;;;;;;;21.23;3.30;;;12.60;99.90;;;;;;5072296;28;20033;-79
2022/11/23 04:32:14;;;;;;;18.83;2.73;;;12.50;99.90;;;;;;5072058;28;20017;-79
2022/11/23 04:34:40;;;;;;;21.38;2.45;;;12.50;99.90;;;;;;5072248;28;20085;-80
2022/11/23 04:37:06;;;;;;;17.27;2.70;;;12.50;99.90;;;;;;5072623;28;20072;-80
2022/11/23 04:39:32;;;;;;;20.27;2.97;;;12.50;99.90;;;;;;5072181;28;20033;-79
2022/11/23 04:41:58;;;;;;;23.20;3.45;;;12.60;99.90;;;;;;5072813;28;20035;-79
2022/11/23 04:44:24;;;;;;;16.53;2.57;;;12.70;99.90;;;;;;5072379;28;20020;-80
2022/11/23 04:46:51;;;;;;;22.37;3.10;;;12.80;99.90;;;;;;5072163;28;20032;-79
2022/11/23 04:49:17;;;;;;;20.02;2.45;;;12.90;99.90;;;;;;5072415;28;20469;-79
2022/11/23 04:51:43;;;;;;;22.58;2.67;;;12.90;99.90;;;;;;5054270;28;20344;-80
2022/11/23 04:54:09;;;;;;;17.75;2.88;;;12.90;99.90;;;;;;5072422;28;20491;-79
2022/11/23 04:56:35;;;;;;;13.40;2.17;;;12.90;99.90;;;;;;5071876;28;20021;-80
2022/11/23 04:59:01;;;;;;;19.70;2.95;;;12.90;99.90;;;;;;5072042;28;20039;-80
2022/11/23 05:01:27;;;;;;;22.33;2.70;;;12.90;99.90;;;;;;5054163;28;20131;-80
2022/11/23 05:03:53;;;;;;;17.30;2.15;;;13.00;99.90;;;;;;5054034;28;20016;-79
2022/11/23 05:06:19;;;;;;;20.15;2.55;;;12.90;99.90;;;;;;5072367;28;20039;-80
2022/11/23 05:08:45;;;;;;;21.97;3.00;;;13.00;99.90;;;;;;5072162;28;20118;-76
2022/11/23 05:11:12;;;;;;;21.57;2.67;;;12.90;99.90;;;;;;5099972;28;20547;-76
2022/11/23 05:13:38;;;;;;;20.87;2.73;;;12.90;99.90;;;;;;5095975;28;20313;-78
2022/11/23 05:16:04;;;;;;;21.55;2.50;;;13.00;99.90;;;;;;5091280;28;20045;-80
2022/11/23 05:18:30;;;;;;;24.17;3.15;;;13.00;99.90;;;;;;5088828;28;20034;-80
2022/11/23 05:20:57;;;;;;;16.08;2.78;;;13.00;99.90;;;;;;5084608;28;20029;-79
2022/11/23 05:23:23;;;;;;;16.13;2.17;;;13.00;99.90;;;;;;5084463;28;20021;-81
2022/11/23 05:25:50;;;;;;;13.23;3.47;;;13.10;99.90;;;;;;5086038;28;20035;-78
2022/11/23 05:28:18;;;;;;;21.35;2.92;;;13.10;99.90;;;;;;5080804;28;20027;-81
2022/11/23 05:30:44;;;;;;;16.50;2.28;;;13.10;99.90;;;;;;5088527;28;20039;-78
2022/11/23 05:33:11;;;;;;;17.38;2.90;;;13.10;99.90;;;;;;5107804;28;20476;-80
2022/11/23 05:35:37;;;;;;;14.77;2.13;;;13.10;99.90;;;;;;5116222;28;20520;-76
2022/11/23 05:38:03;;;;;;;16.92;2.80;;;13.10;99.90;;;;;;5076106;28;20137;-81
2022/11/23 05:40:29;;;;;;;26.63;3.28;;;13.10;99.90;;;;;;5075886;28;20060;-81
2022/11/23 05:42:56;;;;;;;20.38;2.80;;;13.10;99.90;;;;;;5076124;28;20039;-80
2022/11/23 05:45:23;;;;;;;;;;;13.20;99.90;;;;;;5076197;28;20475;-80
2022/11/23 05:47:54;;;;;;;12.65;2.60;;;13.20;99.90;;;;;;5081813;28;19938;-80
2022/11/23 05:50:21;;;;;;;14.73;2.40;;;13.20;99.90;;;;;;5085135;28;20055;-81
2022/11/23 05:52:47;;;;;;;;;;;13.10;99.90;;;;;;5086866;28;20020;-79
2022/11/23 05:55:14;;;;;;;20.15;2.58;;;13.10;99.90;;;;;;5084354;28;20332;-80
2022/11/23 05:57:40;;;;;;;;;;;13.20;99.90;;;;;;5084685;28;20028;-81
2022/11/23 06:00:09;;;;;;;20.35;2.17;;;13.20;99.90;;;;;;5077360;28;19915;-77
2022/11/23 06:02:35;;;;;;;15.15;2.17;;;13.20;99.90;;;;;;5094164;28;20032;-81
2022/11/23 06:05:01;;;;;;;28.23;3.97;;;13.20;99.90;;;;;;5095318;28;20525;-79
2022/11/23 06:07:27;;;;;;;20.02;2.55;;;13.20;99.90;;;;;;5095370;28;20028;-81
2022/11/23 06:09:53;;;;;;;20.67;2.45;;;13.30;99.90;;;;;;5093722;28;20024;-79
2022/11/23 06:12:20;;;;;;;16.65;3.38;;;13.30;99.90;;;;;;5074606;28;20443;-80
2022/11/23 06:14:46;;;;;;;12.60;2.17;;;13.30;99.90;;;;;;5074735;28;20062;-80
2022/11/23 06:17:12;;;;;;;15.18;2.08;;;13.40;99.90;;;;;;5078018;28;20034;-79
2022/11/23 06:19:38;;;;;;;22.00;2.63;;;13.40;99.90;;;;;;5114031;28;20028;-81
2022/11/23 06:22:04;;;;;;;13.57;2.15;;;13.50;99.90;;;;;;5113236;28;20023;-81
2022/11/23 06:24:30;;;;;;;16.87;2.27;;;13.50;99.90;;;;;;5113685;28;20051;-81
2022/11/23 06:26:56;;;;;;;13.80;2.13;;;13.50;99.90;;;;;;5114102;28;20391;-81
2022/11/23 06:29:22;;;;;;;12.80;2.63;;;13.50;99.90;;;;;;5095734;28;20480;-81
2022/11/23 06:31:48;;;;;;;15.20;2.50;;;13.60;99.90;;;;;;5090353;28;20047;-81
2022/11/23 06:34:15;;;;;;;20.10;2.50;;;13.60;99.90;;;;;;5105955;28;20028;-81
2022/11/23 06:36:42;;;;;;;15.57;2.40;;;13.60;99.90;;;;;;5113579;28;20479;-81
2022/11/23 06:39:08;;;;;;;14.88;2.38;;;13.60;99.90;;;;;;5095856;28;20438;-81
2022/11/23 06:41:35;;;;;;;17.73;2.08;;;13.70;99.90;;;;;;5113644;28;20036;-80
2022/11/23 06:44:01;;;;;;;16.35;2.45;;;13.70;99.90;;;;;;5098606;28;20020;-81
2022/11/23 06:46:27;;;;;;;13.88;2.05;;;13.80;99.90;;;;;;5093006;28;20028;-81
2022/11/23 06:48:53;;;;;;;16.13;2.37;;;13.90;99.90;;;;;;5093707;28;20028;-81
2022/11/23 06:51:19;;;;;;;16.40;2.90;;;13.90;99.90;;;;;;5094576;28;20131;-81
2022/11/23 06:53:45;;;;;;;16.92;2.88;;;13.90;99.90;;;;;;5092883;28;20507;-81
2022/11/23 06:56:11;;;;;;;14.13;2.27;;;13.90;99.90;;;;;;5092576;28;20027;-82
2022/11/23 06:58:39;;;;;;;18.13;2.93;;;14.10;99.90;;;;;;5092195;28;20040;-75
2022/11/23 07:01:07;;;;;;;19.85;2.88;;;14.00;99.90;;;;;;5091736;28;20044;-85
2022/11/23 07:03:34;;;;;;;21.48;2.55;;;14.10;99.90;;;;;;5092791;28;20020;-86
2022/11/23 07:06:09;;;;;;;26.73;2.75;;;14.10;99.90;;;;;;5102543;28;20031;-86
2022/11/23 07:08:41;;;;;;;19.05;2.47;;;14.20;99.90;;;;;;5114624;28;20372;-87
2022/11/23 07:11:10;;;;;;;14.90;2.40;;;14.30;99.90;;;;;;5114010;28;20027;-86
2022/11/23 07:13:37;;;;;;;18.95;2.50;;;14.30;99.90;;;;;;5094816;28;20054;-86
2022/11/23 07:16:09;;;;;;;;;;;14.40;99.90;;;;;;5104062;28;20048;-86
2022/11/23 07:18:36;;;;;;;17.60;2.67;;;14.40;99.90;;;;;;5093633;28;19904;-81
2022/11/23 07:21:03;;;;;;;19.70;2.60;;;14.50;99.90;;;;;;5098037;28;20116;-88
2022/11/23 07:23:29;;;;;;;15.77;2.92;;;14.40;99.90;;;;;;5075539;28;20269;-87
2022/11/23 07:25:56;;;;;;;22.73;2.58;;;14.40;99.90;;;;;;5093388;28;20095;-79
2022/11/23 07:28:22;;;;;;;17.83;2.57;;;14.30;99.90;;;;;;5103441;28;20031;-81
2022/11/23 07:30:51;;;;;;;22.30;3.23;;;14.30;99.90;;;;;;5114108;28;20272;-80
2022/11/23 07:33:20;;;;;;;21.70;2.78;;;14.40;99.90;;;;;;5113087;28;20123;-81
2022/11/23 07:35:47;;;;;;;18.48;3.28;;;14.40;99.90;;;;;;5095844;28;20038;-82
2022/11/23 07:38:19;;;;;;;20.15;3.17;;;14.40;99.90;;;;;;5095145;28;20098;-78
2022/11/23 07:40:51;;;;;;;20.98;3.15;;;14.30;99.90;;;;;;5095677;28;20054;-83
2022/11/23 07:43:18;;;;;;;20.73;3.00;;;14.40;99.90;;;;;;5113809;28;20157;-82
2022/11/23 07:45:44;;;;;;;12.20;2.38;;;14.40;99.90;;;;;;5094864;28;20031;-82
2022/11/23 07:48:11;;;;;;;15.77;2.33;;;14.60;99.90;;;;;;5113657;28;20019;-86
2022/11/23 07:50:39;;;;;;;17.25;2.55;;;14.80;99.90;;;;;;5113336;28;20019;-81
2022/11/23 07:53:06;;;;;;;16.35;2.25;;;15.10;99.90;;;;;;5095105;28;20035;-80
2022/11/23 07:55:56;;;;;;;14.48;3.35;;;15.40;99.90;;;;;;5113473;28;20065;-82
2022/11/23 07:58:22;;;;;;;15.13;2.15;;;15.90;99.90;;;;;;5113275;28;20144;-82
2022/11/23 08:00:48;;;;;;;13.63;2.47;;;16.30;99.90;;;;;;5112901;28;20080;-79
2022/11/23 08:03:21;;;;;;;;;;;16.50;99.90;;;;;;5112118;28;20065;-82
2022/11/23 08:05:48;;;;;;;13.45;1.88;;;16.80;99.90;;;;;;5113290;28;19988;-81
2022/11/23 08:08:15;;;;;;;17.75;2.40;;;17.20;99.90;;;;;;5112738;28;20026;-81
2022/11/23 08:10:41;;;;;;;17.20;2.30;;;17.30;99.90;;;;;;5113271;28;20030;-82
2022/11/23 08:13:07;;;;;;;14.82;2.60;;;17.40;99.90;;;;;;5113447;28;20046;-82
2022/11/23 08:15:35;;;;;;;;;;;17.20;99.90;;;;;;5113402;28;20028;-80
2022/11/23 08:18:13;;;;;;;12.82;2.00;;;17.30;99.90;;;;;;5112498;28;19911;-80
2022/11/23 08:20:40;;;;;;;22.92;3.13;;;17.20;99.90;;;;;;5112412;28;20039;-80
2022/11/23 08:23:06;;;;;;;16.88;2.75;;;17.00;99.90;;;;;;5113465;28;20057;-80
2022/11/23 08:25:32;;;;;;;16.60;2.80;;;17.00;99.90;;;;;;5113146;28;20027;-80
2022/11/23 08:28:06;;;;;;;20.45;3.35;;;16.90;99.90;;;;;;5094273;28;20475;-81
2022/11/23 08:30:49;;;;;;;15.52;2.15;;;16.80;99.90;;;;;;5112742;28;20027;-81
2022/11/23 08:33:17;;;;;;;24.05;3.38;;;16.70;99.90;;;;;;5112383;28;20027;-82
2022/11/23 08:35:45;;;;;;;22.48;2.88;;;16.50;99.90;;;;;;5112713;28;20023;-80
2022/11/23 08:38:12;;;;;;;23.70;6.30;;;16.50;99.90;;;;;;5112481;28;20020;-76
2022/11/23 08:40:41;;;;;;;23.27;7.63;;;16.30;99.90;;;;;;5112514;28;20495;-81
2022/11/23 08:43:07;;;;;;;20.27;4.47;;;16.10;99.90;;;;;;5112233;28;20028;-80
2022/11/23 08:45:33;;;;;;;19.00;3.85;;;16.00;99.90;;;;;;5112368;28;20020;-80
2022/11/23 08:48:00;;;;;;;14.02;3.45;;;16.00;99.90;;;;;;5113508;28;20027;-82
2022/11/23 08:50:29;;;;;;;15.55;3.30;;;16.10;99.90;;;;;;5100511;28;20027;-81
2022/11/23 08:52:57;;;;;;;16.33;3.15;;;16.10;99.90;;;;;;5118944;28;20095;-82
2022/11/23 08:55:25;;;;;;;14.18;2.10;;;16.00;99.90;;;;;;5118756;28;20100;-81
2022/11/23 08:57:57;;;;;;;14.85;2.92;;;16.00;99.90;;;;;;5083775;28;20035;-81
2022/11/23 09:00:25;;;;;;;16.42;3.88;;;16.10;99.90;;;;;;5118475;28;20058;-81
2022/11/23 09:02:51;;;;;;;16.95;4.55;;;16.10;99.90;;;;;;5100445;28;20038;-82
2022/11/23 09:05:18;;;;;;;23.67;4.55;;;16.00;99.90;;;;;;5118345;28;20145;-81
2022/11/23 09:07:44;;;;;;;22.27;4.00;;;15.90;99.90;;;;;;5117985;28;20039;-82
2022/11/23 09:10:11;;;;;;;27.20;3.92;;;15.90;99.90;;;;;;5118857;28;20430;-81
2022/11/23 09:12:38;;;;;;;26.10;3.60;;;15.80;99.90;;;;;;5099845;28;20079;-81
2022/11/23 09:15:10;;;;;;;20.23;3.28;;;15.90;99.90;;;;;;5118739;28;20101;-82
2022/11/23 09:17:36;;;;;;;27.35;3.83;;;15.90;99.90;;;;;;5119280;28;20032;-81
2022/11/23 09:20:03;;;;;;;28.45;3.35;;;15.90;99.90;;;;;;5120684;28;20032;-81
2022/11/23 09:22:31;;;;;;;32.75;3.45;;;15.90;99.90;;;;;;5119297;28;20031;-82
2022/11/23 09:24:57;;;;;;;;;;;16.00;99.90;;;;;;5119744;28;20072;-82
2022/11/23 09:27:23;;;;;;;24.48;2.45;;;16.10;99.90;;;;;;5119262;28;20339;-81
2022/11/23 09:29:49;;;;;;;19.30;2.42;;;15.80;99.90;;;;;;5119161;28;20046;-80
2022/11/23 09:32:16;;;;;;;24.02;3.25;;;15.70;99.90;;;;;;5119378;28;20078;-81
2022/11/23 09:34:42;;;;;;;29.23;3.67;;;15.70;99.90;;;;;;5118211;28;20067;-81
2022/11/23 09:37:08;;;;;;;20.92;3.20;;;15.70;99.90;;;;;;5100747;28;20102;-83
2022/11/23 09:39:37;;;;;;;24.85;3.28;;;15.80;99.90;;;;;;5119397;28;20413;-83
2022/11/23 09:42:33;;;;;;;17.60;2.60;;;15.90;99.90;;;;;;5119257;28;20379;-82
2022/11/23 09:45:27;;;;;;;20.48;3.35;;;15.90;99.90;;;;;;5119218;28;20027;-79
2022/11/23 09:48:52;;;;;;;24.23;3.53;;;15.90;99.90;;;;;;5119304;28;20092;-82
2022/11/23 09:51:24;;;;;;;28.25;3.83;;;16.00;99.90;;;;;;4996469;28;20044;-82
2022/11/23 09:54:02;;;;;;;25.77;4.65;;;16.00;99.90;;;;;;4997432;28;20038;-81
2022/11/23 09:56:33;;;;;;;16.25;3.42;;;15.90;99.90;;;;;;4980825;28;20049;-82
2022/11/23 09:59:04;;;;;;;19.98;3.33;;;15.90;99.90;;;;;;4996730;28;20038;-82
2022/11/23 10:01:30;;;;;;;18.13;3.17;;;15.70;99.90;;;;;;4993791;28;20105;-81
2022/11/23 10:03:58;;;;;;;18.13;3.35;;;15.50;99.90;;;;;;4993542;28;20122;-81
2022/11/23 10:06:27;;;;;;;17.83;2.78;;;15.40;99.90;;;;;;5002038;22;20071;-81
2022/11/23 10:09:35;;;;;;;19.75;3.15;;;15.40;99.90;;;;;;5076646;28;20016;-79
2022/11/23 10:12:46;;;;;;;26.58;3.72;;;15.30;99.90;;;;;;5095258;28;20028;-84
2022/11/23 10:15:35;;;;;;;26.60;3.28;;;15.10;99.90;;;;;;5090815;28;20059;-74
2022/11/23 10:18:16;;;;;;;26.20;4.28;;;15.00;99.90;;;;;;5095067;28;20169;-79
2022/11/23 10:21:40;;;;;;;19.83;3.75;;;15.10;99.90;;;;;;5095148;28;20032;-78
2022/11/23 10:24:18;;;;;;;27.90;2.80;;;15.10;99.90;;;;;;5012123;28;20474;-77
2022/11/23 10:26:48;;;;;;;25.48;4.28;;;15.10;99.90;;;;;;5012249;28;20467;-79
2022/11/23 10:29:36;;;;;;;32.17;3.95;;;15.10;99.90;;;;;;5031199;28;20191;-78
2022/11/23 10:32:11;;;;;;;25.92;4.40;;;15.20;99.90;;;;;;5031827;28;20088;-80
2022/11/23 10:35:17;;;;;;;23.88;3.50;;;15.30;99.90;;;;;;5015281;28;20045;-79
2022/11/23 10:37:43;;;;;;;22.80;2.95;;;15.30;99.90;;;;;;5032056;28;20048;-81
2022/11/23 10:40:22;;;;;;;22.67;3.65;;;15.50;99.90;;;;;;5031976;28;20037;-79
2022/11/23 10:42:58;;;;;;;32.45;3.30;;;15.40;99.90;;;;;;5031231;28;20040;-78
2022/11/23 10:45:27;;;;;;;23.17;3.05;;;15.40;99.90;;;;;;5031755;28;20038;-78
2022/11/23 10:47:59;;;;;;;24.13;2.97;;;15.40;99.90;;;;;;5014857;28;20402;-78
2022/11/23 10:50:36;;;;;;;24.17;2.90;;;15.30;99.90;;;;;;5031478;28;20045;-79
2022/11/23 10:53:08;;;;;;;21.35;2.70;;;15.30;99.90;;;;;;5031232;28;20513;-79
2022/11/23 10:55:56;;;;;;;20.95;4.20;;;15.30;99.90;;;;;;5065176;28;20393;-79
2022/11/23 10:58:27;;;;;;;18.10;3.78;;;15.40;99.90;;;;;;5075590;22;20048;-79
2022/11/23 11:01:28;;;;;;;20.60;4.20;;;15.50;99.90;;;;;;5093199;28;20132;-81
2022/11/23 11:03:58;;;;;;;16.05;3.20;;;15.70;99.90;;;;;;5092928;28;20024;-80
2022/11/23 11:06:29;;;;;;;20.52;3.10;;;15.90;99.90;;;;;;5093017;28;20375;-81
2022/11/23 11:09:04;;;;;;;15.63;3.45;;;16.00;99.90;;;;;;5074388;28;20020;-79
2022/11/23 11:11:44;;;;;;;17.40;3.60;;;15.90;99.90;;;;;;5092774;28;20112;-80
2022/11/23 11:14:19;;;;;;;15.25;2.42;;;15.80;99.90;;;;;;5093253;28;20401;-81
2022/11/23 11:16:57;;;;;;;18.40;3.00;;;15.80;99.90;;;;;;5093291;28;20020;-80
2022/11/23 11:19:28;;;;;;;21.63;2.80;;;15.80;99.90;;;;;;5092815;28;20020;-81
2022/11/23 11:21:56;;;;;;;18.02;3.70;;;15.80;99.90;;;;;;5074799;28;20043;-78
2022/11/23 11:24:43;;;;;;;20.45;3.65;;;16.00;99.90;;;;;;5093451;28;20020;-78
2022/11/23 11:27:19;;;;;;;22.85;5.65;;;16.20;99.90;;;;;;5093299;28;20035;-77
2022/11/23 11:30:07;;;;;;;20.85;3.47;;;16.30;99.90;;;;;;5074577;28;20031;-77
2022/11/23 11:32:49;;;;;;;19.92;3.05;;;16.30;99.90;;;;;;5093329;28;20028;-75
2022/11/23 11:35:46;;;;;;;19.35;2.65;;;16.30;99.90;;;;;;5093267;28;20024;-76
2022/11/23 11:38:21;;;;;;;16.25;2.47;;;16.30;99.90;;;;;;5093228;28;20024;-73
2022/11/23 11:40:51;;;;;;;21.02;3.08;;;16.40;99.90;;;;;;5092971;28;20464;-79
2022/11/23 11:43:37;;;;;;;13.57;2.58;;;16.30;99.90;;;;;;5092407;28;20035;-81
2022/11/23 11:46:49;;;;;;;18.38;3.60;;;16.50;99.90;;;;;;5093610;28;20222;-80
2022/11/23 11:49:29;;;;;;;17.50;3.05;;;16.50;99.90;;;;;;5050158;28;20500;-78
2022/11/23 11:52:12;;;;;;;17.80;3.40;;;16.50;99.90;;;;;;5049722;28;20102;-79
2022/11/23 11:55:15;;;;;;;14.55;2.58;;;16.40;99.90;;;;;;5050178;28;20156;-78
2022/11/23 11:57:52;;;;;;;21.83;2.90;;;16.30;99.90;;;;;;5049850;28;20064;-80
2022/11/23 12:00:46;;;;;;;14.25;2.28;;;16.20;99.90;;;;;;5049825;28;20049;-78
2022/11/23 12:03:36;;;;;;;20.90;2.97;;;16.10;99.90;;;;;;5048857;28;20048;-79
2022/11/23 12:06:22;;;;;;;15.48;2.85;;;16.00;99.90;;;;;;5049405;28;20428;-79
2022/11/23 12:09:13;;;;;;;24.60;3.45;;;16.00;99.90;;;;;;5035053;28;20033;-79
2022/11/23 12:11:40;;;;;;;17.98;2.63;;;16.20;99.90;;;;;;5048739;28;20025;-79
2022/11/23 12:14:13;;;;;;;25.50;3.50;;;16.40;99.90;;;;;;5048699;28;20195;-79
2022/11/23 12:16:57;;;;;;;20.35;3.10;;;16.60;99.90;;;;;;5049330;28;20033;-79
2022/11/23 12:19:26;;;;;;;22.40;3.60;;;16.60;99.90;;;;;;5049920;28;20044;-79
2022/11/23 12:22:10;;;;;;;27.13;3.70;;;16.60;99.90;;;;;;5049232;28;20111;-79
2022/11/23 12:25:13;;;;;;;20.58;3.22;;;16.60;99.90;;;;;;5050213;28;20040;-79
2022/11/23 12:28:19;;;;;;;18.88;2.80;;;16.80;99.90;;;;;;5092773;28;20089;-80
2022/11/23 12:31:05;;;;;;;26.98;3.33;;;17.00;99.90;;;;;;5093119;28;20108;-79
2022/11/23 12:33:43;;;;;;;22.55;3.75;;;17.00;99.90;;;;;;5093175;28;20023;-79
2022/11/23 12:36:53;;;;;;;24.48;3.83;;;16.90;99.90;;;;;;5090994;28;20043;-80
2022/11/23 12:39:29;;;;;;;24.23;3.33;;;16.90;99.90;;;;;;5092131;28;20060;-78
2022/11/23 12:42:30;;;;;;;22.67;3.85;;;16.90;99.90;;;;;;5092845;28;20051;-78
2022/11/23 12:45:20;;;;;;;19.02;3.60;;;16.80;99.90;;;;;;5030186;28;20405;-79
2022/11/23 12:47:58;;;;;;;14.45;2.70;;;17.00;99.90;;;;;;5030342;28;20037;-79
2022/11/23 12:50:53;;;;;;;17.55;2.70;;;16.90;99.90;;;;;;5030349;28;20033;-79
2022/11/23 12:53:47;;;;;;;12.82;2.30;;;16.70;99.90;;;;;;5007564;28;20053;-79
2022/11/23 12:56:31;;;;;;;15.95;2.05;;;16.50;99.90;;;;;;5030026;28;20138;-78
2022/11/23 12:58:58;;;;;;;19.10;2.90;;;16.40;99.90;;;;;;5031416;28;20041;-79
2022/11/23 13:01:33;;;;;;;16.23;2.53;;;16.30;99.90;;;;;;5029686;28;20041;-79